sensor_id;sensor_type;location;lat;lon;timestamp;temperature;humidity
52036;DHT22;38046;49.448;32.074;2023-03-20T00:00:09;6.40;73.40
52036;DHT22;38046;49.448;32.074;2023-03-20T00:02:41;6.40;73.40
52036;DHT22;38046;49.448;32.074;2023-03-20T00:05:17;6.40;73.40
52036;DHT22;38046;49.448;32.074;2023-03-20T00:07:45;6.40;73.30
52036;DHT22;38046;49.448;32.074;2023-03-20T00:10:11;6.40;73.20
52036;DHT22;38046;49.448;32.074;2023-03-20T00:12:36;6.40;73.30
52036;DHT22;38046;49.448;32.074;2023-03-20T00:15:05;6.40;73.40
52036;DHT22;38046;49.448;32.074;2023-03-20T00:17:31;6.30;73.40
52036;DHT22;38046;49.448;32.074;2023-03-20T00:19:56;6.30;73.40
52036;DHT22;38046;49.448;32.074;2023-03-20T00:22:22;6.30;73.40
52036;DHT22;38046;49.448;32.074;2023-03-20T00:24:48;6.30;73.50
52036;DHT22;38046;49.448;32.074;2023-03-20T00:27:15;6.30;73.60
52036;DHT22;38046;49.448;32.074;2023-03-20T00:29:42;6.20;73.60
52036;DHT22;38046;49.448;32.074;2023-03-20T00:32:12;6.20;73.60
52036;DHT22;38046;49.448;32.074;2023-03-20T00:34:38;6.20;73.70
52036;DHT22;38046;49.448;32.074;2023-03-20T00:37:03;6.20;73.80
52036;DHT22;38046;49.448;32.074;2023-03-20T00:39:29;6.10;73.80
52036;DHT22;38046;49.448;32.074;2023-03-20T00:41:56;6.10;73.90
52036;DHT22;38046;49.448;32.074;2023-03-20T00:44:24;6.10;73.90
52036;DHT22;38046;49.448;32.074;2023-03-20T00:46:54;6.10;73.90
52036;DHT22;38046;49.448;32.074;2023-03-20T00:49:31;6.00;73.90
52036;DHT22;38046;49.448;32.074;2023-03-20T00:51:57;6.00;73.90
52036;DHT22;38046;49.448;32.074;2023-03-20T00:54:22;6.00;74.10
52036;DHT22;38046;49.448;32.074;2023-03-20T00:57:08;5.90;74.10
52036;DHT22;38046;49.448;32.074;2023-03-20T00:59:38;5.90;74.20
52036;DHT22;38046;49.448;32.074;2023-03-20T01:02:05;5.90;74.40
52036;DHT22;38046;49.448;32.074;2023-03-20T01:04:36;5.90;74.40
52036;DHT22;38046;49.448;32.074;2023-03-20T01:07:02;5.80;74.40
52036;DHT22;38046;49.448;32.074;2023-03-20T01:09:28;5.80;74.50
52036;DHT22;38046;49.448;32.074;2023-03-20T01:11:54;5.80;74.60
52036;DHT22;38046;49.448;32.074;2023-03-20T01:14:20;5.80;74.70
52036;DHT22;38046;49.448;32.074;2023-03-20T01:16:45;5.80;75.40
52036;DHT22;38046;49.448;32.074;2023-03-20T01:19:12;5.80;74.80
52036;DHT22;38046;49.448;32.074;2023-03-20T01:21:39;5.70;75.00
52036;DHT22;38046;49.448;32.074;2023-03-20T01:24:05;5.70;75.10
52036;DHT22;38046;49.448;32.074;2023-03-20T01:26:38;5.70;75.20
52036;DHT22;38046;49.448;32.074;2023-03-20T01:29:19;5.70;75.30
52036;DHT22;38046;49.448;32.074;2023-03-20T01:31:46;5.70;75.40
52036;DHT22;38046;49.448;32.074;2023-03-20T01:34:12;5.70;75.60
52036;DHT22;38046;49.448;32.074;2023-03-20T01:36:38;5.70;75.50
52036;DHT22;38046;49.448;32.074;2023-03-20T01:39:05;5.70;75.80
52036;DHT22;38046;49.448;32.074;2023-03-20T01:41:31;5.70;75.80
52036;DHT22;38046;49.448;32.074;2023-03-20T01:43:57;5.70;76.00
52036;DHT22;38046;49.448;32.074;2023-03-20T01:46:28;5.70;76.10
52036;DHT22;38046;49.448;32.074;2023-03-20T01:51:55;5.70;76.30
52036;DHT22;38046;49.448;32.074;2023-03-20T01:54:25;5.80;76.30
52036;DHT22;38046;49.448;32.074;2023-03-20T01:56:58;5.80;76.10
52036;DHT22;38046;49.448;32.074;2023-03-20T02:00:01;5.80;76.20
52036;DHT22;38046;49.448;32.074;2023-03-20T02:02:25;5.70;76.20
52036;DHT22;38046;49.448;32.074;2023-03-20T02:05:03;5.70;76.30
52036;DHT22;38046;49.448;32.074;2023-03-20T02:07:32;5.70;76.50
52036;DHT22;38046;49.448;32.074;2023-03-20T02:09:58;5.70;76.40
52036;DHT22;38046;49.448;32.074;2023-03-20T02:12:24;5.60;76.40
52036;DHT22;38046;49.448;32.074;2023-03-20T02:14:50;5.60;76.50
52036;DHT22;38046;49.448;32.074;2023-03-20T02:17:17;5.60;76.60
52036;DHT22;38046;49.448;32.074;2023-03-20T02:41:15;5.50;77.30
52036;DHT22;38046;49.448;32.074;2023-03-20T02:44:07;5.50;77.50
52036;DHT22;38046;49.448;32.074;2023-03-20T02:47:12;5.40;77.50
52036;DHT22;38046;49.448;32.074;2023-03-20T02:50:03;5.40;77.50
52036;DHT22;38046;49.448;32.074;2023-03-20T02:55:48;5.40;77.80
52036;DHT22;38046;49.448;32.074;2023-03-20T02:58:57;5.30;77.90
52036;DHT22;38046;49.448;32.074;2023-03-20T03:01:23;5.30;78.10
52036;DHT22;38046;49.448;32.074;2023-03-20T03:03:55;5.30;78.20
52036;DHT22;38046;49.448;32.074;2023-03-20T03:06:30;5.20;78.10
52036;DHT22;38046;49.448;32.074;2023-03-20T03:11:30;5.20;78.30
52036;DHT22;38046;49.448;32.074;2023-03-20T03:13:57;5.20;78.40
52036;DHT22;38046;49.448;32.074;2023-03-20T03:16:28;5.20;78.50
52036;DHT22;38046;49.448;32.074;2023-03-20T03:19:08;5.20;78.60
52036;DHT22;38046;49.448;32.074;2023-03-20T03:21:36;5.20;78.60
52036;DHT22;38046;49.448;32.074;2023-03-20T03:24:03;5.20;78.70
52036;DHT22;38046;49.448;32.074;2023-03-20T03:26:36;5.20;78.70
52036;DHT22;38046;49.448;32.074;2023-03-20T03:29:10;5.20;78.80
52036;DHT22;38046;49.448;32.074;2023-03-20T03:31:37;5.20;78.80
52036;DHT22;38046;49.448;32.074;2023-03-20T03:34:03;5.10;78.80
52036;DHT22;38046;49.448;32.074;2023-03-20T03:41:44;5.10;79.10
52036;DHT22;38046;49.448;32.074;2023-03-20T03:47:14;5.10;79.20
52036;DHT22;38046;49.448;32.074;2023-03-20T03:49:47;5.10;79.10
52036;DHT22;38046;49.448;32.074;2023-03-20T03:52:21;5.10;79.20
52036;DHT22;38046;49.448;32.074;2023-03-20T03:57:57;5.10;79.40
52036;DHT22;38046;49.448;32.074;2023-03-20T04:00:25;5.10;79.50
52036;DHT22;38046;49.448;32.074;2023-03-20T04:02:55;5.10;79.70
52036;DHT22;38046;49.448;32.074;2023-03-20T04:05:24;5.10;79.80
52036;DHT22;38046;49.448;32.074;2023-03-20T04:07:57;5.10;80.00
52036;DHT22;38046;49.448;32.074;2023-03-20T04:10:23;5.20;80.20
52036;DHT22;38046;49.448;32.074;2023-03-20T04:12:49;5.20;80.30
52036;DHT22;38046;49.448;32.074;2023-03-20T04:15:15;5.20;80.30
52036;DHT22;38046;49.448;32.074;2023-03-20T04:17:41;5.30;80.40
52036;DHT22;38046;49.448;32.074;2023-03-20T04:20:07;5.30;80.60
52036;DHT22;38046;49.448;32.074;2023-03-20T04:22:33;5.40;80.60
52036;DHT22;38046;49.448;32.074;2023-03-20T04:25:01;5.40;80.50
52036;DHT22;38046;49.448;32.074;2023-03-20T04:27:27;5.50;80.50
52036;DHT22;38046;49.448;32.074;2023-03-20T04:29:53;5.50;80.40
52036;DHT22;38046;49.448;32.074;2023-03-20T04:32:19;5.60;80.60
52036;DHT22;38046;49.448;32.074;2023-03-20T04:34:44;5.60;80.60
52036;DHT22;38046;49.448;32.074;2023-03-20T04:37:10;5.70;80.60
52036;DHT22;38046;49.448;32.074;2023-03-20T04:39:36;5.80;80.30
52036;DHT22;38046;49.448;32.074;2023-03-20T04:42:03;5.80;80.20
52036;DHT22;38046;49.448;32.074;2023-03-20T04:44:29;5.90;80.00
52036;DHT22;38046;49.448;32.074;2023-03-20T04:46:55;5.90;79.90
52036;DHT22;38046;49.448;32.074;2023-03-20T04:49:20;6.00;80.70
52036;DHT22;38046;49.448;32.074;2023-03-20T04:51:46;6.10;80.10
52036;DHT22;38046;49.448;32.074;2023-03-20T04:54:12;6.10;79.80
52036;DHT22;38046;49.448;32.074;2023-03-20T04:56:37;6.20;79.60
52036;DHT22;38046;49.448;32.074;2023-03-20T04:59:03;6.20;79.40
52036;DHT22;38046;49.448;32.074;2023-03-20T05:01:28;6.20;79.30
52036;DHT22;38046;49.448;32.074;2023-03-20T05:03:54;6.00;79.20
52036;DHT22;38046;49.448;32.074;2023-03-20T05:06:28;6.00;79.70
52036;DHT22;38046;49.448;32.074;2023-03-20T05:08:54;5.90;80.10
52036;DHT22;38046;49.448;32.074;2023-03-20T05:11:20;5.90;80.50
52036;DHT22;38046;49.448;32.074;2023-03-20T05:13:46;5.80;80.30
52036;DHT22;38046;49.448;32.074;2023-03-20T05:16:12;5.70;80.40
52036;DHT22;38046;49.448;32.074;2023-03-20T05:18:37;5.70;80.70
52036;DHT22;38046;49.448;32.074;2023-03-20T05:21:03;5.60;81.10
52036;DHT22;38046;49.448;32.074;2023-03-20T05:23:29;5.50;81.40
52036;DHT22;38046;49.448;32.074;2023-03-20T05:25:55;5.40;81.70
52036;DHT22;38046;49.448;32.074;2023-03-20T05:28:21;5.40;82.10
52036;DHT22;38046;49.448;32.074;2023-03-20T05:30:47;5.40;82.60
52036;DHT22;38046;49.448;32.074;2023-03-20T05:33:12;5.40;83.00
52036;DHT22;38046;49.448;32.074;2023-03-20T05:35:38;5.40;83.20
52036;DHT22;38046;49.448;32.074;2023-03-20T05:38:04;5.40;83.50
52036;DHT22;38046;49.448;32.074;2023-03-20T05:40:30;5.40;83.50
52036;DHT22;38046;49.448;32.074;2023-03-20T05:42:55;5.50;83.50
52036;DHT22;38046;49.448;32.074;2023-03-20T05:45:21;5.50;83.60
52036;DHT22;38046;49.448;32.074;2023-03-20T05:47:47;5.50;83.60
52036;DHT22;38046;49.448;32.074;2023-03-20T05:50:13;5.50;83.70
52036;DHT22;38046;49.448;32.074;2023-03-20T05:52:39;5.60;84.00
52036;DHT22;38046;49.448;32.074;2023-03-20T05:55:05;5.60;84.00
52036;DHT22;38046;49.448;32.074;2023-03-20T05:57:30;5.70;84.10
52036;DHT22;38046;49.448;32.074;2023-03-20T05:59:56;5.70;84.00
52036;DHT22;38046;49.448;32.074;2023-03-20T06:02:22;5.70;84.10
52036;DHT22;38046;49.448;32.074;2023-03-20T06:04:47;5.80;84.20
52036;DHT22;38046;49.448;32.074;2023-03-20T06:07:13;5.80;84.40
52036;DHT22;38046;49.448;32.074;2023-03-20T06:09:39;5.90;84.70
52036;DHT22;38046;49.448;32.074;2023-03-20T06:12:05;6.00;84.90
52036;DHT22;38046;49.448;32.074;2023-03-20T06:14:31;6.20;85.30
52036;DHT22;38046;49.448;32.074;2023-03-20T06:16:57;6.30;85.50
52036;DHT22;38046;49.448;32.074;2023-03-20T06:19:23;6.50;85.50
52036;DHT22;38046;49.448;32.074;2023-03-20T06:21:49;6.70;85.20
52036;DHT22;38046;49.448;32.074;2023-03-20T06:24:15;6.90;84.50
52036;DHT22;38046;49.448;32.074;2023-03-20T06:26:41;7.00;83.70
52036;DHT22;38046;49.448;32.074;2023-03-20T06:29:07;7.20;83.30
52036;DHT22;38046;49.448;32.074;2023-03-20T06:31:32;7.30;82.90
52036;DHT22;38046;49.448;32.074;2023-03-20T06:33:58;7.40;82.70
52036;DHT22;38046;49.448;32.074;2023-03-20T06:36:24;7.40;82.40
52036;DHT22;38046;49.448;32.074;2023-03-20T06:38:49;7.50;82.10
52036;DHT22;38046;49.448;32.074;2023-03-20T06:41:15;7.60;82.00
52036;DHT22;38046;49.448;32.074;2023-03-20T06:43:41;7.70;81.70
52036;DHT22;38046;49.448;32.074;2023-03-20T06:46:07;7.80;81.80
52036;DHT22;38046;49.448;32.074;2023-03-20T06:48:34;7.90;81.90
52036;DHT22;38046;49.448;32.074;2023-03-20T06:51:00;8.00;81.80
52036;DHT22;38046;49.448;32.074;2023-03-20T06:53:25;8.20;81.30
52036;DHT22;38046;49.448;32.074;2023-03-20T06:55:52;8.30;80.50
52036;DHT22;38046;49.448;32.074;2023-03-20T06:58:19;8.30;80.00
52036;DHT22;38046;49.448;32.074;2023-03-20T07:00:45;8.30;80.00
52036;DHT22;38046;49.448;32.074;2023-03-20T07:03:11;8.40;80.00
52036;DHT22;38046;49.448;32.074;2023-03-20T07:05:38;8.40;79.80
52036;DHT22;38046;49.448;32.074;2023-03-20T07:08:05;8.40;79.60
52036;DHT22;38046;49.448;32.074;2023-03-20T07:10:32;8.50;79.50
52036;DHT22;38046;49.448;32.074;2023-03-20T07:12:58;8.50;79.20
52036;DHT22;38046;49.448;32.074;2023-03-20T07:15:24;8.50;78.90
52036;DHT22;38046;49.448;32.074;2023-03-20T07:17:50;8.50;78.70
52036;DHT22;38046;49.448;32.074;2023-03-20T07:20:17;8.50;78.30
52036;DHT22;38046;49.448;32.074;2023-03-20T07:22:43;8.50;78.00
52036;DHT22;38046;49.448;32.074;2023-03-20T07:25:09;8.40;77.80
52036;DHT22;38046;49.448;32.074;2023-03-20T07:27:35;8.30;77.70
52036;DHT22;38046;49.448;32.074;2023-03-20T07:30:03;8.10;77.60
52036;DHT22;38046;49.448;32.074;2023-03-20T07:32:29;8.00;77.70
52036;DHT22;38046;49.448;32.074;2023-03-20T07:34:55;7.90;78.00
52036;DHT22;38046;49.448;32.074;2023-03-20T07:37:20;7.90;78.10
52036;DHT22;38046;49.448;32.074;2023-03-20T07:39:46;7.80;78.30
52036;DHT22;38046;49.448;32.074;2023-03-20T07:42:12;7.80;78.30
52036;DHT22;38046;49.448;32.074;2023-03-20T07:44:38;7.80;78.40
52036;DHT22;38046;49.448;32.074;2023-03-20T07:47:04;7.80;78.70
52036;DHT22;38046;49.448;32.074;2023-03-20T07:49:30;7.80;78.80
52036;DHT22;38046;49.448;32.074;2023-03-20T07:51:56;7.80;79.00
52036;DHT22;38046;49.448;32.074;2023-03-20T07:54:22;7.90;79.10
52036;DHT22;38046;49.448;32.074;2023-03-20T07:56:48;7.90;79.20
52036;DHT22;38046;49.448;32.074;2023-03-20T07:59:15;8.10;79.50
52036;DHT22;38046;49.448;32.074;2023-03-20T08:01:40;8.10;78.90
52036;DHT22;38046;49.448;32.074;2023-03-20T08:04:06;8.20;78.40
52036;DHT22;38046;49.448;32.074;2023-03-20T08:06:32;8.30;78.30
52036;DHT22;38046;49.448;32.074;2023-03-20T08:08:58;8.30;78.40
52036;DHT22;38046;49.448;32.074;2023-03-20T08:11:23;8.40;78.30
52036;DHT22;38046;49.448;32.074;2023-03-20T08:13:49;8.50;78.10
52036;DHT22;38046;49.448;32.074;2023-03-20T08:16:15;8.50;77.80
52036;DHT22;38046;49.448;32.074;2023-03-20T08:18:40;8.60;77.70
52036;DHT22;38046;49.448;32.074;2023-03-20T08:21:07;8.70;77.70
52036;DHT22;38046;49.448;32.074;2023-03-20T08:23:33;8.80;77.60
52036;DHT22;38046;49.448;32.074;2023-03-20T08:25:59;8.90;77.40
52036;DHT22;38046;49.448;32.074;2023-03-20T08:28:25;9.00;77.20
52036;DHT22;38046;49.448;32.074;2023-03-20T08:30:51;9.10;77.20
52036;DHT22;38046;49.448;32.074;2023-03-20T08:33:17;9.10;76.70
52036;DHT22;38046;49.448;32.074;2023-03-20T08:35:43;9.20;76.60
52036;DHT22;38046;49.448;32.074;2023-03-20T08:38:12;9.30;76.50
52036;DHT22;38046;49.448;32.074;2023-03-20T08:40:41;9.30;76.30
52036;DHT22;38046;49.448;32.074;2023-03-20T08:43:07;9.30;75.80
52036;DHT22;38046;49.448;32.074;2023-03-20T08:45:33;9.30;75.70
52036;DHT22;38046;49.448;32.074;2023-03-20T08:47:59;9.30;75.50
52036;DHT22;38046;49.448;32.074;2023-03-20T08:50:24;9.30;75.60
52036;DHT22;38046;49.448;32.074;2023-03-20T08:52:50;9.30;75.60
52036;DHT22;38046;49.448;32.074;2023-03-20T08:55:16;9.30;75.30
52036;DHT22;38046;49.448;32.074;2023-03-20T08:57:42;9.30;75.40
52036;DHT22;38046;49.448;32.074;2023-03-20T09:00:10;9.20;75.30
52036;DHT22;38046;49.448;32.074;2023-03-20T09:02:37;9.20;75.40
52036;DHT22;38046;49.448;32.074;2023-03-20T09:05:03;9.10;75.20
52036;DHT22;38046;49.448;32.074;2023-03-20T09:07:29;9.10;75.00
52036;DHT22;38046;49.448;32.074;2023-03-20T09:09:55;9.00;74.90
52036;DHT22;38046;49.448;32.074;2023-03-20T09:12:20;8.90;75.20
52036;DHT22;38046;49.448;32.074;2023-03-20T09:14:46;8.80;75.30
52036;DHT22;38046;49.448;32.074;2023-03-20T09:17:12;8.80;75.90
52036;DHT22;38046;49.448;32.074;2023-03-20T09:19:37;8.70;76.00
52036;DHT22;38046;49.448;32.074;2023-03-20T09:22:14;8.70;76.10
52036;DHT22;38046;49.448;32.074;2023-03-20T09:24:42;8.60;76.40
52036;DHT22;38046;49.448;32.074;2023-03-20T09:27:08;8.60;76.20
52036;DHT22;38046;49.448;32.074;2023-03-20T09:29:34;8.60;76.00
52036;DHT22;38046;49.448;32.074;2023-03-20T09:32:00;8.60;75.90
52036;DHT22;38046;49.448;32.074;2023-03-20T09:34:26;8.50;75.90
52036;DHT22;38046;49.448;32.074;2023-03-20T09:36:51;8.50;76.00
52036;DHT22;38046;49.448;32.074;2023-03-20T09:39:17;8.40;76.00
52036;DHT22;38046;49.448;32.074;2023-03-20T09:41:47;8.40;76.20
52036;DHT22;38046;49.448;32.074;2023-03-20T09:44:39;8.30;76.10
52036;DHT22;38046;49.448;32.074;2023-03-20T09:47:18;8.30;76.00
52036;DHT22;38046;49.448;32.074;2023-03-20T09:50:06;8.20;76.00
52036;DHT22;38046;49.448;32.074;2023-03-20T09:52:53;8.10;76.10
52036;DHT22;38046;49.448;32.074;2023-03-20T09:55:24;8.10;76.20
52036;DHT22;38046;49.448;32.074;2023-03-20T09:57:55;8.00;76.30
52036;DHT22;38046;49.448;32.074;2023-03-20T10:00:25;7.90;76.50
52036;DHT22;38046;49.448;32.074;2023-03-20T10:06:11;7.90;77.00
52036;DHT22;38046;49.448;32.074;2023-03-20T10:08:15;7.90;76.80
52036;DHT22;38046;49.448;32.074;2023-03-20T10:14:04;7.80;76.80
52036;DHT22;38046;49.448;32.074;2023-03-20T10:17:18;7.70;77.00
52036;DHT22;38046;49.448;32.074;2023-03-20T10:21:55;7.60;77.20
52036;DHT22;38046;49.448;32.074;2023-03-20T10:24:27;7.60;77.30
52036;DHT22;38046;49.448;32.074;2023-03-20T10:26:54;7.50;77.50
52036;DHT22;38046;49.448;32.074;2023-03-20T10:29:26;7.40;77.40
52036;DHT22;38046;49.448;32.074;2023-03-20T10:32:02;7.40;77.60
52036;DHT22;38046;49.448;32.074;2023-03-20T10:34:47;7.40;77.80
52036;DHT22;38046;49.448;32.074;2023-03-20T10:40:27;7.40;78.00
52036;DHT22;38046;49.448;32.074;2023-03-20T10:43:25;7.40;77.90
52036;DHT22;38046;49.448;32.074;2023-03-20T10:46:00;7.40;78.00
52036;DHT22;38046;49.448;32.074;2023-03-20T10:48:34;7.30;78.10
52036;DHT22;38046;49.448;32.074;2023-03-20T10:51:02;7.40;78.30
52036;DHT22;38046;49.448;32.074;2023-03-20T10:53:58;7.40;78.20
52036;DHT22;38046;49.448;32.074;2023-03-20T10:59:04;7.40;78.10
52036;DHT22;38046;49.448;32.074;2023-03-20T11:01:31;7.30;78.00
52036;DHT22;38046;49.448;32.074;2023-03-20T11:03:56;7.30;78.00
52036;DHT22;38046;49.448;32.074;2023-03-20T11:06:30;7.40;78.10
52036;DHT22;38046;49.448;32.074;2023-03-20T11:09:25;7.40;78.00
52036;DHT22;38046;49.448;32.074;2023-03-20T11:11:56;7.40;78.00
52036;DHT22;38046;49.448;32.074;2023-03-20T11:14:25;7.40;77.80
52036;DHT22;38046;49.448;32.074;2023-03-20T11:16:53;7.40;77.70
52036;DHT22;38046;49.448;32.074;2023-03-20T11:19:20;7.40;78.00
52036;DHT22;38046;49.448;32.074;2023-03-20T11:21:55;7.40;78.20
52036;DHT22;38046;49.448;32.074;2023-03-20T11:26:49;7.40;78.90
52036;DHT22;38046;49.448;32.074;2023-03-20T11:29:35;7.40;78.30
52036;DHT22;38046;49.448;32.074;2023-03-20T11:32:15;7.40;78.10
52036;DHT22;38046;49.448;32.074;2023-03-20T11:34:44;7.40;78.10
52036;DHT22;38046;49.448;32.074;2023-03-20T11:37:28;7.40;78.00
52036;DHT22;38046;49.448;32.074;2023-03-20T11:39:59;7.40;78.00
52036;DHT22;38046;49.448;32.074;2023-03-20T11:42:28;7.40;78.30
52036;DHT22;38046;49.448;32.074;2023-03-20T11:45:04;7.40;78.50
52036;DHT22;38046;49.448;32.074;2023-03-20T11:47:33;7.40;78.50
52036;DHT22;38046;49.448;32.074;2023-03-20T11:50:02;7.30;78.50
52036;DHT22;38046;49.448;32.074;2023-03-20T11:52:37;7.30;78.50
52036;DHT22;38046;49.448;32.074;2023-03-20T11:55:11;7.30;78.50
52036;DHT22;38046;49.448;32.074;2023-03-20T11:57:48;7.30;78.50
52036;DHT22;38046;49.448;32.074;2023-03-20T12:02:40;7.30;78.40
52036;DHT22;38046;49.448;32.074;2023-03-20T12:07:46;7.40;78.50
52036;DHT22;38046;49.448;32.074;2023-03-20T12:10:14;7.40;78.50
52036;DHT22;38046;49.448;32.074;2023-03-20T12:12:51;7.50;78.20
52036;DHT22;38046;49.448;32.074;2023-03-20T12:15:28;7.50;77.90
52036;DHT22;38046;49.448;32.074;2023-03-20T12:20:44;7.60;77.50
52036;DHT22;38046;49.448;32.074;2023-03-20T12:23:26;7.60;77.20
52036;DHT22;38046;49.448;32.074;2023-03-20T12:26:04;7.60;77.10
52036;DHT22;38046;49.448;32.074;2023-03-20T12:31:43;7.70;76.60
52036;DHT22;38046;49.448;32.074;2023-03-20T12:36:49;7.70;76.30
52036;DHT22;38046;49.448;32.074;2023-03-20T12:39:17;7.70;76.30
52036;DHT22;38046;49.448;32.074;2023-03-20T12:52:54;7.80;76.00
52036;DHT22;38046;49.448;32.074;2023-03-20T12:58:05;7.80;75.70
52036;DHT22;38046;49.448;32.074;2023-03-20T13:01:00;7.80;75.50
52036;DHT22;38046;49.448;32.074;2023-03-20T13:06:53;7.80;75.70
52036;DHT22;38046;49.448;32.074;2023-03-20T13:09:45;7.90;75.70
52036;DHT22;38046;49.448;32.074;2023-03-20T13:28:23;8.00;74.50
52036;DHT22;38046;49.448;32.074;2023-03-20T13:39:24;8.10;73.60
52036;DHT22;38046;49.448;32.074;2023-03-20T13:41:52;8.10;73.40
52036;DHT22;38046;49.448;32.074;2023-03-20T13:44:19;8.10;73.30
52036;DHT22;38046;49.448;32.074;2023-03-20T13:47:05;8.10;73.10
52036;DHT22;38046;49.448;32.074;2023-03-20T13:49:36;8.20;72.70
52036;DHT22;38046;49.448;32.074;2023-03-20T13:52:31;8.20;72.40
52036;DHT22;38046;49.448;32.074;2023-03-20T13:55:31;8.30;72.20
52036;DHT22;38046;49.448;32.074;2023-03-20T13:58:13;8.30;72.20
52036;DHT22;38046;49.448;32.074;2023-03-20T14:00:54;8.30;71.80
52036;DHT22;38046;49.448;32.074;2023-03-20T14:03:36;8.30;71.60
52036;DHT22;38046;49.448;32.074;2023-03-20T14:08:52;8.30;71.10
52036;DHT22;38046;49.448;32.074;2023-03-20T14:13:52;8.40;70.80
52036;DHT22;38046;49.448;32.074;2023-03-20T14:16:19;8.40;71.40
52036;DHT22;38046;49.448;32.074;2023-03-20T14:19:02;8.40;70.70
52036;DHT22;38046;49.448;32.074;2023-03-20T14:21:28;8.40;70.50
52036;DHT22;38046;49.448;32.074;2023-03-20T14:24:02;8.50;70.50
52036;DHT22;38046;49.448;32.074;2023-03-20T14:26:31;8.50;70.10
52036;DHT22;38046;49.448;32.074;2023-03-20T14:29:02;8.50;69.90
52036;DHT22;38046;49.448;32.074;2023-03-20T14:31:48;8.50;69.50
52036;DHT22;38046;49.448;32.074;2023-03-20T14:34:15;8.50;69.40
52036;DHT22;38046;49.448;32.074;2023-03-20T14:37:01;8.50;69.10
52036;DHT22;38046;49.448;32.074;2023-03-20T14:57:45;8.70;67.50
52036;DHT22;38046;49.448;32.074;2023-03-20T15:00:22;8.70;66.60
52036;DHT22;38046;49.448;32.074;2023-03-20T15:02:52;8.70;66.20
52036;DHT22;38046;49.448;32.074;2023-03-20T15:05:27;8.70;66.10
52036;DHT22;38046;49.448;32.074;2023-03-20T15:07:55;8.80;65.90
52036;DHT22;38046;49.448;32.074;2023-03-20T15:10:22;8.80;65.80
52036;DHT22;38046;49.448;32.074;2023-03-20T15:12:49;8.80;65.70
52036;DHT22;38046;49.448;32.074;2023-03-20T15:15:26;8.80;65.70
52036;DHT22;38046;49.448;32.074;2023-03-20T15:17:51;8.80;65.60
52036;DHT22;38046;49.448;32.074;2023-03-20T15:20:24;8.80;65.50
52036;DHT22;38046;49.448;32.074;2023-03-20T15:22:55;8.90;65.50
52036;DHT22;38046;49.448;32.074;2023-03-20T15:25:23;8.90;65.60
52036;DHT22;38046;49.448;32.074;2023-03-20T15:27:52;8.90;65.70
52036;DHT22;38046;49.448;32.074;2023-03-20T15:30:20;8.90;65.60
52036;DHT22;38046;49.448;32.074;2023-03-20T15:32:47;9.00;65.70
52036;DHT22;38046;49.448;32.074;2023-03-20T15:35:16;9.00;65.60
52036;DHT22;38046;49.448;32.074;2023-03-20T15:37:45;9.00;65.40
52036;DHT22;38046;49.448;32.074;2023-03-20T15:40:32;9.00;65.40
52036;DHT22;38046;49.448;32.074;2023-03-20T15:45:37;9.00;65.30
52036;DHT22;38046;49.448;32.074;2023-03-20T15:48:18;9.00;65.30
52036;DHT22;38046;49.448;32.074;2023-03-20T15:50:48;9.00;65.30
52036;DHT22;38046;49.448;32.074;2023-03-20T15:53:18;8.90;65.50
52036;DHT22;38046;49.448;32.074;2023-03-20T15:55:51;8.90;65.60
52036;DHT22;38046;49.448;32.074;2023-03-20T15:58:17;8.90;65.70
52036;DHT22;38046;49.448;32.074;2023-03-20T16:00:46;8.90;65.90
52036;DHT22;38046;49.448;32.074;2023-03-20T16:03:15;8.80;66.10
52036;DHT22;38046;49.448;32.074;2023-03-20T16:05:45;8.80;66.40
52036;DHT22;38046;49.448;32.074;2023-03-20T16:08:21;8.70;66.60
52036;DHT22;38046;49.448;32.074;2023-03-20T16:10:48;8.70;66.90
52036;DHT22;38046;49.448;32.074;2023-03-20T16:13:14;8.70;67.20
52036;DHT22;38046;49.448;32.074;2023-03-20T16:15:43;8.60;67.50
52036;DHT22;38046;49.448;32.074;2023-03-20T16:18:14;8.60;67.60
52036;DHT22;38046;49.448;32.074;2023-03-20T16:20:47;8.60;67.60
52036;DHT22;38046;49.448;32.074;2023-03-20T16:23:41;8.60;67.60
52036;DHT22;38046;49.448;32.074;2023-03-20T16:26:07;8.60;67.40
52036;DHT22;38046;49.448;32.074;2023-03-20T16:28:36;8.60;67.30
52036;DHT22;38046;49.448;32.074;2023-03-20T16:31:15;8.60;67.40
52036;DHT22;38046;49.448;32.074;2023-03-20T16:33:42;8.60;67.30
52036;DHT22;38046;49.448;32.074;2023-03-20T16:36:16;8.60;67.30
52036;DHT22;38046;49.448;32.074;2023-03-20T16:38:56;8.60;67.20
52036;DHT22;38046;49.448;32.074;2023-03-20T16:41:31;8.70;67.10
52036;DHT22;38046;49.448;32.074;2023-03-20T16:43:58;8.70;67.10
52036;DHT22;38046;49.448;32.074;2023-03-20T16:46:26;8.70;67.10
52036;DHT22;38046;49.448;32.074;2023-03-20T16:48:57;8.70;66.80
52036;DHT22;38046;49.448;32.074;2023-03-20T16:51:25;8.70;66.70
52036;DHT22;38046;49.448;32.074;2023-03-20T16:53:56;8.70;66.70
52036;DHT22;38046;49.448;32.074;2023-03-20T16:56:28;8.70;66.70
52036;DHT22;38046;49.448;32.074;2023-03-20T16:58:57;8.70;66.50
52036;DHT22;38046;49.448;32.074;2023-03-20T17:01:26;8.70;66.50
52036;DHT22;38046;49.448;32.074;2023-03-20T17:03:57;8.70;66.30
52036;DHT22;38046;49.448;32.074;2023-03-20T17:06:37;8.70;66.20
52036;DHT22;38046;49.448;32.074;2023-03-20T17:11:36;8.70;65.90
52036;DHT22;38046;49.448;32.074;2023-03-20T17:14:02;8.70;66.10
52036;DHT22;38046;49.448;32.074;2023-03-20T17:16:29;8.70;66.10
52036;DHT22;38046;49.448;32.074;2023-03-20T17:19:16;8.70;66.10
52036;DHT22;38046;49.448;32.074;2023-03-20T17:21:44;8.70;66.60
52036;DHT22;38046;49.448;32.074;2023-03-20T17:24:11;8.70;66.00
52036;DHT22;38046;49.448;32.074;2023-03-20T17:26:38;8.70;65.90
52036;DHT22;38046;49.448;32.074;2023-03-20T17:29:04;8.70;65.90
52036;DHT22;38046;49.448;32.074;2023-03-20T17:31:30;8.70;65.90
52036;DHT22;38046;49.448;32.074;2023-03-20T17:33:56;8.70;65.80
52036;DHT22;38046;49.448;32.074;2023-03-20T17:36:40;8.70;65.70
52036;DHT22;38046;49.448;32.074;2023-03-20T17:39:06;8.70;65.50
52036;DHT22;38046;49.448;32.074;2023-03-20T17:41:31;8.70;65.50
52036;DHT22;38046;49.448;32.074;2023-03-20T17:43:57;8.70;65.40
52036;DHT22;38046;49.448;32.074;2023-03-20T17:46:28;8.80;65.30
52036;DHT22;38046;49.448;32.074;2023-03-20T17:48:57;8.80;65.20
52036;DHT22;38046;49.448;32.074;2023-03-20T17:51:24;8.90;65.00
52036;DHT22;38046;49.448;32.074;2023-03-20T17:53:49;8.90;64.90
52036;DHT22;38046;49.448;32.074;2023-03-20T17:56:20;8.90;64.70
52036;DHT22;38046;49.448;32.074;2023-03-20T17:58:47;9.00;64.60
52036;DHT22;38046;49.448;32.074;2023-03-20T18:01:13;9.00;64.40
52036;DHT22;38046;49.448;32.074;2023-03-20T18:03:38;9.10;64.20
52036;DHT22;38046;49.448;32.074;2023-03-20T18:06:05;9.10;63.90
52036;DHT22;38046;49.448;32.074;2023-03-20T18:08:31;9.20;63.70